.
WxDataArchive / Data Records for 2007-07-22
2007-07-21 July 2007 2007-07-23

Data Records for Sunday, 22 July 2007

Time	Temp	Chill	HIndex	Humid	Dewpt	 Wind 	HiWind	WindDir	Rain 	Barom 
-----	----	-----	------	-----	-----	------	------	-------	-----	----- 
00:00	57.0	57.0	57.0	85	52.5	0	0	---	0.00	30.189 
00:05	56.9	56.9	56.9	86	52.8	0	0	---	0.00	30.186 
00:10	56.7	56.7	56.7	86	52.6	0	0	---	0.00	30.187 
00:15	56.6	56.6	56.6	86	52.5	0	0	---	0.00	30.186 
00:20	56.5	56.5	56.5	87	52.7	0	0	---	0.00	30.186 
00:25	56.5	56.5	56.5	88	53.0	0	0	---	0.00	30.187 
00:30	56.5	56.5	56.5	88	53.0	0	0	---	0.00	30.187 
00:35	56.3	56.3	56.3	88	52.8	0	0	---	0.00	30.188 
00:40	56.2	56.2	56.2	88	52.7	0	0	---	0.00	30.185 
00:45	56.0	56.0	56.0	88	52.5	0	0	---	0.00	30.183 
00:50	55.9	55.9	55.9	89	52.7	0	0	---	0.00	30.184 
00:55	55.9	55.9	55.9	89	52.7	0	0	---	0.00	30.187 
01:00	55.7	55.7	55.7	90	52.8	0	0	---	0.00	30.187 
01:05	55.6	55.6	55.6	90	52.7	0	0	---	0.00	30.186 
01:10	55.4	55.4	55.4	90	52.5	0	0	---	0.00	30.186 
01:15	55.3	55.3	55.3	90	52.4	0	0	---	0.00	30.184 
01:20	55.1	55.1	55.1	90	52.2	0	0	---	0.00	30.180 
01:25	55.0	55.0	55.0	90	52.1	0	0	---	0.00	30.178 
01:30	54.8	54.8	54.8	90	51.9	0	0	---	0.00	30.178 
01:35	54.8	54.8	54.8	91	52.2	0	0	---	0.00	30.179 
01:40	54.7	54.7	54.7	91	52.1	0	0	---	0.00	30.178 
01:45	54.7	54.7	54.7	92	52.4	0	0	---	0.00	30.177 
01:50	54.7	54.7	54.7	92	52.4	0	0	---	0.00	30.179 
01:55	54.5	54.5	54.5	92	52.2	0	0	---	0.00	30.181 
02:00	54.5	54.5	54.5	92	52.2	0	0	---	0.00	30.181 
02:05	54.5	54.5	54.5	92	52.2	0	0	---	0.00	30.179 
02:10	54.4	54.4	54.4	92	52.1	0	0	---	0.00	30.178 
02:15	54.4	54.4	54.4	93	52.4	0	0	---	0.00	30.177 
02:20	54.4	54.4	54.4	93	52.4	0	0	---	0.00	30.179 
02:25	54.2	54.2	54.2	93	52.2	0	0	---	0.00	30.183 
02:30	54.2	54.2	54.2	93	52.2	0	0	---	0.00	30.184 
02:35	54.1	54.1	54.1	93	52.1	0	0	---	0.00	30.182 
02:40	54.1	54.1	54.1	94	52.4	0	0	---	0.00	30.184 
02:45	54.2	54.2	54.2	94	52.5	0	0	---	0.00	30.188 
02:50	54.2	54.2	54.2	94	52.5	0	0	---	0.00	30.189 
02:55	54.2	54.2	54.2	94	52.5	0	0	---	0.00	30.190 
03:00	54.1	54.1	54.1	94	52.4	0	0	---	0.00	30.189 
03:05	54.1	54.1	54.1	94	52.4	0	0	---	0.00	30.188 
03:10	53.9	53.9	53.9	94	52.2	0	0	---	0.00	30.188 
03:15	53.8	53.8	53.8	94	52.1	0	0	---	0.00	30.188 
03:20	53.6	53.6	53.6	94	51.9	0	0	---	0.00	30.188 
03:25	53.6	53.6	53.6	95	52.2	0	0	---	0.00	30.188 
03:30	53.5	53.5	53.5	95	52.1	0	0	---	0.00	30.185 
03:35	53.3	53.3	53.3	95	51.9	0	0	---	0.00	30.187 
03:40	53.2	53.2	53.2	95	51.8	0	0	---	0.00	30.188 
03:45	53.2	53.2	53.2	95	51.8	0	0	---	0.00	30.190 
03:50	53.2	53.2	53.2	95	51.8	0	0	---	0.00	30.191 
03:55	53.1	53.1	53.1	95	51.7	0	0	---	0.00	30.191 
04:00	53.1	53.1	53.1	95	51.7	0	0	---	0.00	30.191 
04:05	52.9	52.9	52.9	95	51.5	0	0	---	0.00	30.190 
04:10	52.8	52.8	52.8	95	51.4	0	0	---	0.00	30.190 
04:15	52.6	52.6	52.6	95	51.2	0	0	---	0.00	30.192 
04:20	52.6	52.6	52.6	96	51.5	0	0	---	0.00	30.192 
04:25	52.6	52.6	52.6	96	51.5	0	0	---	0.00	30.192 
04:30	52.5	52.5	52.5	96	51.4	0	0	---	0.00	30.193 
04:35	52.5	52.5	52.5	96	51.4	0	0	---	0.00	30.194 
04:40	52.6	52.6	52.6	96	51.5	0	0	---	0.00	30.196 
04:45	52.5	52.5	52.5	96	51.4	0	0	---	0.00	30.197 
04:50	52.5	52.5	52.5	96	51.4	0	0	---	0.00	30.197 
04:55	52.3	52.3	52.3	96	51.2	0	0	---	0.00	30.202 
05:00	52.3	52.3	52.3	96	51.2	0	0	---	0.00	30.207 
05:05	52.3	52.3	52.3	96	51.2	0	0	---	0.00	30.208 
05:10	52.3	52.3	52.3	96	51.2	0	0	---	0.00	30.207 
05:15	52.5	52.5	52.5	96	51.4	0	0	---	0.00	30.208 
05:20	52.3	52.3	52.3	96	51.2	0	0	---	0.00	30.208 
05:25	52.3	52.3	52.3	96	51.2	0	0	---	0.00	30.209 
05:30	52.3	52.3	52.3	96	51.2	0	0	---	0.00	30.209 
05:35	52.2	52.2	52.2	96	51.1	0	0	---	0.00	30.210 
05:40	52.2	52.2	52.2	96	51.1	0	0	---	0.00	30.211 
05:45	52.3	52.3	52.3	96	51.2	0	0	---	0.00	30.214 
05:50	52.3	52.3	52.3	96	51.2	0	0	---	0.00	30.217 
05:55	52.6	52.6	52.6	96	51.5	0	0	---	0.00	30.218 
06:00	52.9	52.9	52.9	97	52.1	0	0	---	0.00	30.218 
06:05	53.2	53.2	53.2	97	52.4	0	0	---	0.00	30.220 
06:10	53.5	53.5	53.5	97	52.7	0	0	---	0.00	30.220 
06:15	53.9	53.9	53.9	97	53.1	0	0	---	0.00	30.219 
06:20	54.2	54.2	54.2	97	53.4	0	0	---	0.00	30.221 
06:25	54.7	54.7	54.7	97	53.9	0	0	---	0.00	30.223 
06:30	55.3	55.3	55.3	97	54.5	0	0	---	0.00	30.223 
06:35	55.9	55.9	55.9	97	55.1	0	0	---	0.00	30.224 
06:40	56.6	56.6	56.6	96	55.5	0	0	---	0.00	30.222 
06:45	57.5	57.5	57.5	96	56.4	0	0	---	0.00	30.222 
06:50	58.7	58.7	58.7	92	56.4	0	1	112	0.00	30.222 
06:55	60.2	60.2	60.2	84	55.3	0	1	112	0.00	30.221 
07:00	61.6	61.6	61.6	78	54.7	0	1	112	0.00	30.221 
07:05	63.1	63.1	63.1	74	54.7	0	1	112	0.00	30.223 
07:10	64.3	64.3	64.3	72	55.1	0	1	112	0.00	30.225 
07:15	65.3	65.3	65.3	70	55.3	0	2	112	0.00	30.228 
07:20	65.8	65.8	65.8	69	55.3	1	2	112	0.00	30.230 
07:25	66.4	66.4	66.4	69	55.9	0	2	112	0.00	30.230 
07:30	66.6	66.6	66.6	67	55.3	1	3	112	0.00	30.229 
07:35	66.8	66.8	66.8	68	55.9	1	3	90	0.00	30.228 
07:40	66.9	66.9	66.9	67	55.6	1	3	90	0.00	30.227 
07:45	67.1	67.1	67.1	69	56.6	1	3	68	0.00	30.226 
07:50	67.4	67.4	67.4	67	56.1	1	3	68	0.00	30.228 
07:55	67.4	67.4	67.4	67	56.1	2	6	68	0.00	30.229 
08:00	67.4	67.4	67.4	67	56.1	1	3	90	0.00	30.224 
08:05	67.8	67.8	67.8	68	56.8	1	3	90	0.00	30.225 
08:10	68.4	68.4	68.4	68	57.4	2	6	90	0.00	30.223 
08:15	69.1	69.1	69.1	67	57.7	1	4	112	0.00	30.225 
08:20	69.4	69.4	69.4	66	57.5	2	4	112	0.00	30.226 
08:25	69.8	69.8	69.8	65	57.5	1	3	112	0.00	30.222 
08:30	70.3	70.3	70.3	65	58.0	2	4	112	0.00	30.221 
08:35	70.3	70.3	70.3	65	58.0	2	4	90	0.00	30.222 
08:40	70.3	70.3	70.3	64	57.5	1	3	90	0.00	30.221 
08:45	70.6	70.6	70.6	65	58.2	1	4	90	0.00	30.224 
08:50	70.6	70.6	70.6	64	57.8	2	5	90	0.00	30.228 
08:55	70.6	70.6	70.6	64	57.8	2	4	90	0.00	30.231 
09:00	70.4	70.4	70.4	65	58.1	2	5	90	0.00	30.232 
09:05	70.4	70.4	70.4	65	58.1	2	5	90	0.00	30.234 
09:10	70.4	70.4	70.4	65	58.1	2	5	112	0.00	30.235 
09:15	70.8	70.8	70.8	65	58.4	2	5	90	0.00	30.233 
09:20	70.6	70.6	70.6	64	57.8	2	5	90	0.00	30.230 
09:25	71.1	71.1	71.1	65	58.7	2	4	112	0.00	30.228 
09:30	71.1	71.1	71.1	62	57.4	3	5	112	0.00	30.229 
09:35	70.9	70.9	70.9	63	57.7	2	5	135	0.00	30.228 
09:40	71.5	71.5	71.5	60	56.9	2	6	90	0.00	30.227 
09:45	72.1	72.1	72.1	59	57.0	1	5	112	0.00	30.227 
09:50	72.7	72.7	72.7	58	57.1	2	5	90	0.00	30.223 
09:55	73.2	73.2	73.2	57	57.0	2	3	90	0.00	30.221 
10:00	73.7	73.7	73.7	56	57.0	2	5	112	0.00	30.221 
10:05	73.5	73.5	73.5	56	56.8	2	5	90	0.00	30.223 
10:10	73.3	73.3	73.3	53	55.1	3	5	90	0.00	30.224 
10:15	73.5	73.5	73.5	56	56.8	2	5	90	0.00	30.223 
10:20	74.2	74.2	74.2	53	56.0	2	4	112	0.00	30.223 
10:25	74.2	74.2	74.2	51	54.9	3	9	90	0.00	30.224 
10:30	74.0	74.0	74.0	55	56.8	2	5	90	0.00	30.222 
10:35	74.0	74.0	74.0	52	55.2	2	7	112	0.00	30.223 
10:40	74.2	74.2	74.2	52	55.4	2	6	112	0.00	30.221 
10:45	74.4	74.4	74.4	54	56.7	2	5	112	0.00	30.221 
10:50	74.9	74.9	74.9	52	56.1	1	3	90	0.00	30.220 
10:55	75.3	75.3	77.7	52	56.4	2	6	112	0.00	30.220 
11:00	76.1	76.1	78.1	50	56.1	0	2	135	0.00	30.219 
11:05	76.5	76.5	78.3	48	55.3	2	5	90	0.00	30.219 
11:10	76.1	76.1	78.1	47	54.4	1	5	90	0.00	30.221 
11:15	76.1	76.1	78.1	51	56.6	1	4	90	0.00	30.221 
11:20	76.0	76.0	77.9	42	51.2	2	6	90	0.00	30.222 
11:25	75.6	75.6	77.8	46	53.3	2	3	90	0.00	30.221 
11:30	75.1	75.1	77.6	44	51.7	2	4	90	0.00	30.222 
11:35	75.1	75.1	77.7	49	54.6	1	2	112	0.00	30.221 
11:40	75.3	75.3	77.5	37	47.2	2	5	90	0.00	30.222 
11:45	75.8	75.8	77.8	41	50.4	2	4	90	0.00	30.221 
11:50	76.1	76.1	77.9	40	50.0	3	5	90	0.00	30.221 
11:55	75.8	75.8	77.9	45	52.9	2	5	90	0.00	30.219 
12:00	76.0	76.0	77.9	43	51.9	2	6	90	0.00	30.218 
12:05	76.5	76.5	78.1	42	51.7	1	4	112	0.00	30.214 
12:10	76.7	76.7	78.2	42	51.9	1	4	68	0.00	30.215 
12:15	76.5	76.5	78.1	41	51.0	2	5	112	0.00	30.216 
12:20	76.7	76.7	78.2	43	52.5	2	6	90	0.00	30.214 
12:25	76.3	76.3	78.0	42	51.5	3	6	90	0.00	30.214 
12:30	76.3	76.3	77.9	40	50.2	2	4	90	0.00	30.212 
12:35	76.8	76.8	78.4	46	54.4	1	3	90	0.00	30.213 
12:40	76.8	76.8	78.1	39	49.9	2	5	90	0.00	30.216 
12:45	76.5	76.5	78.0	40	50.4	2	5	112	0.00	30.218 
12:50	76.5	76.5	78.1	42	51.7	1	4	112	0.00	30.219 
12:55	77.7	77.7	78.9	47	55.8	0	2	112	0.00	30.217 
13:00	78.1	78.1	78.6	37	49.7	1	3	112	0.00	30.211 
13:05	78.6	78.6	79.0	40	52.2	1	4	112	0.00	30.210 
13:10	78.5	78.5	78.8	37	50.0	1	2	90	0.00	30.209 
13:15	78.6	78.6	79.1	41	52.9	2	4	90	0.00	30.210 
13:20	78.5	78.5	78.8	37	50.0	2	5	90	0.00	30.209 
13:25	78.1	78.1	78.6	37	49.7	2	5	90	0.00	30.209 
13:30	77.4	77.4	78.5	41	51.8	1	4	90	0.00	30.208 
13:35	77.4	77.4	78.6	44	53.8	1	3	90	0.00	30.207 
13:40	77.9	77.9	78.5	37	49.5	1	5	90	0.00	30.208 
13:45	78.1	78.1	78.8	40	51.8	2	4	112	0.00	30.207 
13:50	77.9	77.9	78.8	42	52.9	2	6	90	0.00	30.208 
13:55	77.6	77.6	78.5	39	50.7	3	6	90	0.00	30.206 
14:00	77.9	77.9	78.7	41	52.3	2	6	90	0.00	30.205 
14:05	78.3	78.3	78.6	36	49.1	2	5	90	0.00	30.204 
14:10	78.5	78.5	78.8	37	50.0	3	6	90	0.00	30.203 
14:15	78.6	78.6	79.0	39	51.5	3	6	90	0.00	30.202 
14:20	79.0	79.0	79.4	41	53.3	1	3	112	0.00	30.196 
14:25	79.4	79.4	79.3	37	50.8	1	2	135	0.00	30.193 
14:30	79.6	79.6	79.4	37	51.0	1	6	68	0.00	30.192 
14:35	79.0	79.0	79.3	40	52.6	3	9	90	0.00	30.194 
14:40	78.1	78.1	78.6	37	49.7	3	7	90	0.00	30.192 
14:45	78.3	78.3	78.8	38	50.6	2	5	112	0.00	30.190 
14:50	78.6	78.6	78.9	37	50.1	2	4	112	0.00	30.190 
14:55	78.6	78.6	78.9	38	50.8	3	9	90	0.00	30.189 
15:00	78.8	78.8	79.0	38	51.0	1	4	112	0.00	30.188 
15:05	79.2	79.2	79.3	39	52.1	1	5	112	0.00	30.184 
15:10	79.2	79.2	79.1	36	49.9	2	6	112	0.00	30.178 
15:15	79.2	79.2	79.3	38	51.4	2	5	112	0.00	30.176 
15:20	78.8	78.8	78.8	35	48.8	2	8	68	0.00	30.175 
15:25	79.0	79.0	79.2	39	51.9	2	7	90	0.00	30.174 
15:30	79.0	79.0	79.4	41	53.3	1	4	112	0.00	30.172 
15:35	79.2	79.2	79.4	40	52.8	0	4	112	0.00	30.172 
15:40	79.4	79.4	79.2	35	49.3	2	5	90	0.00	30.171 
15:45	79.4	79.4	79.4	38	51.6	2	5	90	0.00	30.164 
15:50	79.9	79.9	79.7	38	52.0	2	5	112	0.00	30.163 
15:55	80.1	80.1	79.8	38	52.2	0	2	90	0.00	30.161 
16:00	79.6	79.6	79.4	37	51.0	0	1	90	0.00	30.159 
16:05	79.9	79.9	79.8	39	52.7	1	4	90	0.00	30.158 
16:10	79.9	79.9	79.4	34	49.0	1	4	90	0.00	30.158 
16:15	80.1	80.1	79.8	37	51.5	0	4	90	0.00	30.155 
16:20	79.0	79.0	79.0	36	49.7	3	9	112	0.00	30.152 
16:25	78.5	78.5	78.9	38	50.8	2	5	112	0.00	30.152 
16:30	78.5	78.5	78.9	38	50.8	1	4	68	0.00	30.149 
16:35	78.5	78.5	78.7	36	49.3	2	5	90	0.00	30.146 
16:40	78.8	78.8	79.2	41	53.1	1	4	90	0.00	30.144 
16:45	79.0	79.0	79.1	37	50.5	2	5	90	0.00	30.144 
16:50	78.6	78.6	78.9	38	50.8	3	6	112	0.00	30.142 
16:55	78.5	78.5	79.0	40	52.1	1	4	112	0.00	30.140 
17:00	78.3	78.3	78.7	37	49.9	2	7	90	0.00	30.139 
17:05	78.1	78.1	78.7	39	51.1	1	3	90	0.00	30.139 
17:10	78.1	78.1	78.6	37	49.7	2	5	90	0.00	30.136 
17:15	78.1	78.1	78.7	39	51.1	1	3	90	0.00	30.138 
17:20	77.7	77.7	78.5	38	50.0	1	2	90	0.00	30.138 
17:25	77.6	77.6	78.5	39	50.7	2	4	90	0.00	30.134 
17:30	77.2	77.2	78.3	39	50.3	2	5	90	0.00	30.136 
17:35	77.0	77.0	78.2	39	50.1	1	4	90	0.00	30.133 
17:40	76.8	76.8	78.2	41	51.3	1	3	90	0.00	30.130 
17:45	76.8	76.8	78.2	42	51.9	0	1	90	0.00	30.129 
17:50	77.0	77.0	78.3	42	52.1	0	2	90	0.00	30.130 
17:55	77.0	77.0	78.3	42	52.1	0	3	90	0.00	30.129 
18:00	77.0	77.0	78.3	41	51.5	2	5	90	0.00	30.128 
18:05	77.0	77.0	78.3	41	51.5	1	4	90	0.00	30.123 
18:10	77.0	77.0	78.3	41	51.5	1	2	90	0.00	30.124 
18:15	76.8	76.8	78.2	41	51.3	2	4	68	0.00	30.129 
18:20	76.7	76.7	78.1	41	51.2	0	2	68	0.00	30.131 
18:25	76.5	76.5	78.1	43	52.3	0	1	68	0.00	30.131 
18:30	76.5	76.5	78.1	43	52.3	0	2	68	0.00	30.128 
18:35	76.7	76.7	78.1	40	50.5	1	3	68	0.00	30.131 
18:40	76.8	76.8	78.2	42	51.9	0	2	90	0.00	30.128 
18:45	76.8	76.8	78.3	45	53.8	0	0	---	0.00	30.128 
18:50	76.8	76.8	78.3	43	52.6	1	3	90	0.00	30.126 
18:55	76.7	76.7	78.2	42	51.9	1	3	90	0.00	30.127 
19:00	76.5	76.5	78.1	42	51.7	1	2	68	0.00	30.124 
19:05	76.3	76.3	78.1	44	52.8	0	2	68	0.00	30.120 
19:10	76.1	76.1	78.0	43	52.0	1	3	90	0.00	30.121 
19:15	76.0	76.0	77.9	43	51.9	1	4	90	0.00	30.120 
19:20	76.0	76.0	77.9	43	51.9	2	4	90	0.00	30.123 
19:25	75.8	75.8	77.9	44	52.3	2	4	90	0.00	30.121 
19:30	75.6	75.6	77.8	44	52.1	1	3	90	0.00	30.121 
19:35	75.4	75.4	77.7	45	52.6	0	2	90	0.00	30.121 
19:40	75.3	75.3	77.7	44	51.9	1	5	68	0.00	30.121 
19:45	75.1	75.1	77.6	44	51.7	1	2	68	0.00	30.121 
19:50	74.7	74.7	74.7	45	51.9	1	2	68	0.00	30.119 
19:55	74.6	74.6	74.6	45	51.8	1	3	68	0.00	30.118 
20:00	74.2	74.2	74.2	46	52.1	0	1	68	0.00	30.118 
20:05	73.9	73.9	73.9	45	51.2	0	1	68	0.00	30.115 
20:10	73.5	73.5	73.5	46	51.4	0	0	---	0.00	30.118 
20:15	72.8	72.8	72.8	48	52.0	0	0	---	0.00	30.119 
20:20	72.3	72.3	72.3	48	51.5	0	0	---	0.00	30.117 
20:25	71.6	71.6	71.6	49	51.4	0	0	---	0.00	30.117 
20:30	71.1	71.1	71.1	50	51.5	0	0	---	0.00	30.115 
20:35	70.8	70.8	70.8	53	52.8	0	0	---	0.00	30.117 
20:40	70.3	70.3	70.3	55	53.4	0	0	---	0.00	30.118 
20:45	69.9	69.9	69.9	56	53.5	0	0	---	0.00	30.115 
20:50	69.6	69.6	69.6	57	53.7	0	0	---	0.00	30.117 
20:55	69.1	69.1	69.1	58	53.7	0	0	---	0.00	30.119 
21:00	68.6	68.6	68.6	58	53.2	0	0	---	0.00	30.119 
21:05	68.3	68.3	68.3	59	53.4	0	0	---	0.00	30.118 
21:10	67.9	67.9	67.9	60	53.5	0	0	---	0.00	30.118 
21:15	67.6	67.6	67.6	61	53.7	0	0	---	0.00	30.117 
21:20	67.4	67.4	67.4	62	53.9	0	1	68	0.00	30.118 
21:25	67.6	67.6	67.6	60	53.2	0	2	68	0.00	30.119 
21:30	68.3	68.3	68.3	60	53.9	1	2	68	0.00	30.120 
21:35	68.8	68.8	68.8	59	53.9	1	2	68	0.00	30.120 
21:40	68.9	68.9	68.9	60	54.4	0	2	68	0.00	30.127 
21:45	68.6	68.6	68.6	61	54.6	0	0	---	0.00	30.128 
21:50	68.3	68.3	68.3	62	54.8	0	1	68	0.00	30.127 
21:55	67.9	67.9	67.9	63	54.8	0	1	68	0.00	30.126 
22:00	67.8	67.8	67.8	63	54.7	1	2	68	0.00	30.127 
22:05	67.6	67.6	67.6	63	54.5	0	1	68	0.00	30.126 
22:10	67.6	67.6	67.6	62	54.1	0	2	68	0.00	30.126 
22:15	67.4	67.4	67.4	64	54.8	0	1	68	0.00	30.126 
22:20	67.1	67.1	67.1	65	54.9	0	0	---	0.00	30.125 
22:25	66.9	66.9	66.9	64	54.3	0	1	68	0.00	30.121 
22:30	66.8	66.8	66.8	64	54.2	0	1	68	0.00	30.122 
22:35	66.6	66.6	66.6	65	54.5	0	0	---	0.00	30.123 
22:40	66.3	66.3	66.3	65	54.2	0	1	68	0.00	30.123 
22:45	66.3	66.3	66.3	65	54.2	0	2	68	0.00	30.124 
22:50	66.3	66.3	66.3	65	54.2	0	2	68	0.00	30.128 
22:55	66.1	66.1	66.1	65	54.0	0	1	68	0.00	30.130 
23:00	66.0	66.0	66.0	65	53.9	0	1	68	0.00	30.128 
23:05	65.6	65.6	65.6	66	53.9	0	1	68	0.00	30.128 
23:10	65.3	65.3	65.3	67	54.1	0	0	---	0.00	30.124 
23:15	65.0	65.0	65.0	68	54.2	0	0	---	0.00	30.129 
23:20	64.5	64.5	64.5	68	53.7	0	0	---	0.00	30.130 
23:25	64.2	64.2	64.2	69	53.8	0	0	---	0.00	30.131 
23:30	63.7	63.7	63.7	70	53.7	0	0	---	0.00	30.133 
23:35	63.2	63.2	63.2	72	54.0	0	0	---	0.00	30.131 
23:40	62.9	62.9	62.9	72	53.7	0	0	---	0.00	30.130 
23:45	62.7	62.7	62.7	73	53.9	0	0	---	0.00	30.130 
23:50	62.4	62.4	62.4	74	54.0	0	0	---	0.00	30.129 
23:55	62.1	62.1	62.1	75	54.1	0	0	---	0.00	30.131 

CoCoRaHS
IN-AL-39
A2 Web Hosting
Creative Commons License
GoDaddy
Look for:

loaded 2017-10-17 00:15:33 • last modified 2010-11-18 10:43:29
Privacy PolicyDisclaimer
• wx.awcolley.com is powered by PmWiki v.2002016 •
• all content (unless otherwise noted) © 2017 A W Colley